Time;durP1;ratioP1;P1;durP2;ratioP2;P2;SDS_P1;SDS_P2;PMS_P1;PMS_P2;Temp;Humidity;BMP_temperature;BMP_pressure;BME280_temperature;BME280_humidity;BME280_pressure;Samples;Min_cycle;Max_cycle;Signal;HPM_P1;HPM_P2
2023/05/26 00:01:05;;;;;;;21.40;9.25;;;10.90;99.90;;;;;;5107091;28;20416;-62
2023/05/26 00:03:31;;;;;;;21.90;8.95;;;10.90;99.90;;;;;;5111758;28;20031;-62
2023/05/26 00:05:56;;;;;;;18.40;8.82;;;11.00;99.90;;;;;;5108421;28;20526;-61
2023/05/26 00:08:22;;;;;;;23.67;10.20;;;11.00;99.90;;;;;;5109837;28;20240;-60
2023/05/26 00:10:48;;;;;;;19.98;10.15;;;11.10;99.90;;;;;;5108456;28;20482;-61
2023/05/26 00:13:14;;;;;;;23.27;10.50;;;11.20;99.90;;;;;;5111071;28;20023;-62
2023/05/26 00:15:40;;;;;;;24.65;10.57;;;11.40;99.90;;;;;;5109206;28;20035;-61
2023/05/26 00:18:06;;;;;;;29.55;10.68;;;11.50;99.90;;;;;;5108547;28;20023;-60
2023/05/26 00:20:33;;;;;;;25.15;10.23;;;11.70;99.90;;;;;;5109802;28;20031;-58
2023/05/26 00:22:59;;;;;;;21.77;10.55;;;11.80;99.90;;;;;;5107989;28;20106;-58
2023/05/26 00:25:25;;;;;;;28.48;9.10;;;11.80;99.90;;;;;;5107800;28;20024;-60
2023/05/26 00:27:50;;;;;;;28.15;9.70;;;11.80;99.90;;;;;;5110418;28;20534;-60
2023/05/26 00:30:16;;;;;;;27.40;9.25;;;11.90;99.90;;;;;;5105166;28;20023;-59
2023/05/26 00:32:42;;;;;;;31.92;8.98;;;11.90;99.90;;;;;;5105788;28;20493;-60
2023/05/26 00:35:08;;;;;;;21.98;8.70;;;11.90;99.90;;;;;;5109642;28;20032;-59
2023/05/26 00:37:33;;;;;;;26.65;9.02;;;11.90;99.90;;;;;;5107792;28;20111;-58
2023/05/26 00:39:59;;;;;;;27.25;8.13;;;11.90;99.90;;;;;;5110690;28;20094;-62
2023/05/26 00:42:25;;;;;;;32.40;9.15;;;11.90;99.90;;;;;;5109524;28;20111;-56
2023/05/26 00:44:51;;;;;;;32.08;8.40;;;11.90;99.90;;;;;;5107401;28;20034;-60
2023/05/26 00:47:17;;;;;;;25.13;8.27;;;11.90;99.90;;;;;;5104558;28;20055;-55
2023/05/26 00:49:44;;;;;;;22.73;7.88;;;12.00;99.90;;;;;;5105786;28;20024;-54
2023/05/26 00:52:10;;;;;;;20.85;7.05;;;12.00;99.90;;;;;;5107058;28;20080;-57
2023/05/26 00:54:37;;;;;;;34.88;8.82;;;12.00;99.90;;;;;;5109852;28;20076;-58
2023/05/26 00:57:03;;;;;;;27.55;7.78;;;12.10;99.90;;;;;;5103263;28;20020;-60
2023/05/26 00:59:29;;;;;;;30.63;6.72;;;12.10;99.90;;;;;;5104631;28;20073;-56
2023/05/26 01:01:55;;;;;;;19.45;6.90;;;12.10;99.90;;;;;;5107277;28;20057;-57
2023/05/26 01:04:21;;;;;;;20.65;7.00;;;12.00;99.90;;;;;;5107307;28;20540;-56
2023/05/26 01:06:49;;;;;;;35.58;7.22;;;12.10;99.90;;;;;;5102838;28;20092;-55
2023/05/26 01:09:15;;;;;;;35.47;7.20;;;12.10;99.90;;;;;;5107660;28;20034;-54
2023/05/26 01:12:11;;;;;;;25.02;7.80;;;12.00;99.90;;;;;;5106084;28;20028;-55
2023/05/26 01:14:45;;;;;;;24.77;7.43;;;12.00;99.90;;;;;;5097027;28;20110;-54
2023/05/26 01:17:18;;;;;;;31.23;6.43;;;12.00;99.90;;;;;;5107351;28;20028;-54
2023/05/26 01:20:19;;;;;;;32.22;7.78;;;12.00;99.90;;;;;;5101706;28;20045;-60
2023/05/26 01:22:50;;;;;;;30.60;7.10;;;12.00;99.90;;;;;;5056368;28;20110;-60
2023/05/26 01:25:44;;;;;;;25.75;6.88;;;12.00;99.90;;;;;;5103710;28;20040;-59
2023/05/26 01:28:32;;;;;;;34.90;7.50;;;11.90;99.90;;;;;;5109390;28;20493;-60
2023/05/26 01:30:59;;;;;;;25.35;7.00;;;11.90;99.90;;;;;;5103431;28;20070;-61
2023/05/26 01:33:24;;;;;;;30.02;6.18;;;11.70;99.90;;;;;;5102348;28;20533;-62
2023/05/26 01:35:50;;;;;;;29.65;6.70;;;11.70;99.90;;;;;;5105829;28;20059;-59
2023/05/26 01:38:16;;;;;;;33.67;7.78;;;11.70;99.90;;;;;;5108023;28;20023;-60
2023/05/26 01:40:43;;;;;;;30.33;6.15;;;11.70;99.90;;;;;;5106943;28;20023;-59
2023/05/26 01:43:39;;;;;;;29.77;6.25;;;11.70;99.90;;;;;;5100444;28;20024;-58
2023/05/26 01:46:28;;;;;;;24.98;6.47;;;11.70;99.90;;;;;;5102908;28;20025;-55
2023/05/26 01:48:57;;;;;;;29.85;5.63;;;11.70;99.90;;;;;;5106075;28;20027;-55
2023/05/26 01:51:25;;;;;;;30.00;6.43;;;11.60;99.90;;;;;;5103305;28;20027;-54
2023/05/26 01:53:55;;;;;;;37.45;6.28;;;11.60;99.90;;;;;;5107824;28;20110;-58
2023/05/26 01:56:23;;;;;;;24.15;5.90;;;11.60;99.90;;;;;;5106703;28;20099;-60
2023/05/26 01:58:51;;;;;;;27.23;5.60;;;11.60;99.90;;;;;;5108036;28;20730;-57
2023/05/26 02:01:17;;;;;;;23.65;5.47;;;11.50;99.90;;;;;;5104266;27;20026;-57
2023/05/26 02:03:42;;;;;;;29.38;6.68;;;11.50;99.90;;;;;;5105920;28;20401;-57
2023/05/26 02:06:09;;;;;;;24.63;5.70;;;11.50;99.90;;;;;;5104249;28;20567;-59
2023/05/26 02:08:36;;;;;;;29.00;5.03;;;11.40;99.90;;;;;;5106097;28;20118;-59
2023/05/26 02:11:01;;;;;;;34.78;6.40;;;11.40;99.90;;;;;;5107063;28;20560;-56
2023/05/26 02:13:27;;;;;;;33.20;5.63;;;11.40;99.90;;;;;;5106507;28;20115;-58
2023/05/26 02:15:52;;;;;;;26.98;5.22;;;11.40;99.90;;;;;;5105058;28;20028;-58
2023/05/26 02:18:21;;;;;;;28.73;5.57;;;11.40;99.90;;;;;;5110030;28;20023;-53
2023/05/26 02:20:46;;;;;;;29.58;5.60;;;11.40;99.90;;;;;;5108085;28;20098;-55
2023/05/26 02:23:12;;;;;;;26.00;5.35;;;11.40;99.90;;;;;;5106743;28;20034;-59
2023/05/26 02:25:38;;;;;;;30.17;5.35;;;11.40;99.90;;;;;;5111762;28;20038;-58
2023/05/26 02:28:03;;;;;;;34.90;6.18;;;11.40;99.90;;;;;;5109761;28;20034;-55
2023/05/26 02:30:29;;;;;;;30.85;5.93;;;11.40;99.90;;;;;;5110034;28;20623;-54
2023/05/26 02:32:54;;;;;;;37.28;6.30;;;11.30;99.90;;;;;;5110298;28;20023;-55
2023/05/26 02:35:20;;;;;;;38.50;6.63;;;11.30;99.90;;;;;;5109536;28;20032;-53
2023/05/26 02:37:47;;;;;;;39.50;7.72;;;11.30;99.90;;;;;;5109918;28;20020;-56
2023/05/26 02:40:12;;;;;;;22.88;5.05;;;11.30;99.90;;;;;;5111455;28;20685;-55
2023/05/26 02:42:38;;;;;;;35.80;5.45;;;11.20;99.90;;;;;;5109989;28;20035;-55
2023/05/26 02:45:04;;;;;;;20.75;5.50;;;11.20;99.90;;;;;;5108037;28;20036;-56
2023/05/26 02:47:30;;;;;;;25.45;5.18;;;11.10;99.90;;;;;;5111569;28;20039;-58
2023/05/26 02:49:55;;;;;;;40.88;4.85;;;11.10;99.90;;;;;;5110832;28;20055;-59
2023/05/26 02:52:22;;;;;;;31.38;5.20;;;11.10;99.90;;;;;;5109915;28;20063;-57
2023/05/26 02:54:48;;;;;;;30.48;5.00;;;11.10;99.90;;;;;;5110252;28;20019;-59
2023/05/26 02:57:13;;;;;;;29.73;5.68;;;10.90;99.90;;;;;;5111686;28;20152;-56
2023/05/26 02:59:39;;;;;;;33.03;5.18;;;10.90;99.90;;;;;;5109136;28;20040;-58
2023/05/26 03:02:04;;;;;;;27.80;5.93;;;10.90;99.90;;;;;;5106684;28;20024;-60
2023/05/26 03:04:30;;;;;;;30.35;6.43;;;10.90;99.90;;;;;;5105695;28;20035;-61
2023/05/26 03:06:56;;;;;;;28.63;5.85;;;10.90;99.90;;;;;;5108893;28;20023;-58
2023/05/26 03:09:21;;;;;;;38.65;5.30;;;10.90;99.90;;;;;;5106486;28;20120;-60
2023/05/26 03:11:47;;;;;;;39.08;5.82;;;10.80;99.90;;;;;;5108700;28;20089;-57
2023/05/26 03:14:12;;;;;;;36.80;5.70;;;10.80;99.90;;;;;;5110542;28;20047;-55
2023/05/26 03:16:38;;;;;;;31.05;5.25;;;10.80;99.90;;;;;;5111638;28;20056;-55
2023/05/26 03:19:03;;;;;;;33.55;6.90;;;10.80;99.90;;;;;;5109235;28;20039;-58
2023/05/26 03:21:31;;;;;;;25.10;5.30;;;10.70;99.90;;;;;;5110729;28;20028;-59
2023/05/26 03:23:56;;;;;;;32.30;5.93;;;10.70;99.90;;;;;;5109588;28;20027;-60
2023/05/26 03:26:22;;;;;;;28.30;4.78;;;10.70;99.90;;;;;;5110253;28;20035;-59
2023/05/26 03:28:47;;;;;;;27.13;5.80;;;10.70;99.90;;;;;;5108361;28;20027;-59
2023/05/26 03:31:13;;;;;;;29.33;5.15;;;10.70;99.90;;;;;;5110923;28;20363;-58
2023/05/26 03:33:38;;;;;;;37.35;6.03;;;10.60;99.90;;;;;;5108367;28;20047;-58
2023/05/26 03:36:05;;;;;;;34.70;5.47;;;10.60;99.90;;;;;;5106370;28;20027;-59
2023/05/26 03:38:30;;;;;;;35.40;6.20;;;10.60;99.90;;;;;;5101068;28;20042;-56
2023/05/26 03:40:56;;;;;;;32.78;5.82;;;10.60;99.90;;;;;;5110512;28;20028;-58
2023/05/26 03:43:23;;;;;;;33.75;5.80;;;10.60;99.90;;;;;;5110971;28;20058;-58
2023/05/26 03:45:49;;;;;;;42.90;7.22;;;10.60;99.90;;;;;;5109203;28;20493;-60
2023/05/26 03:48:15;;;;;;;26.92;5.05;;;10.50;99.90;;;;;;5102698;28;20099;-57
2023/05/26 03:50:41;;;;;;;33.67;5.15;;;10.60;99.90;;;;;;5109415;28;20035;-54
2023/05/26 03:53:07;;;;;;;44.50;7.60;;;10.50;99.90;;;;;;5109587;28;20030;-57
2023/05/26 03:55:33;;;;;;;46.90;6.90;;;10.50;99.90;;;;;;5107339;28;20393;-56
2023/05/26 03:57:59;;;;;;;36.10;5.10;;;10.40;99.90;;;;;;5107579;28;20089;-53
2023/05/26 04:00:30;;;;;;;32.10;5.55;;;10.40;99.90;;;;;;5109739;28;20043;-59
2023/05/26 04:02:55;;;;;;;30.55;5.70;;;10.40;99.90;;;;;;5106080;28;20029;-60
2023/05/26 04:05:21;;;;;;;31.13;5.90;;;10.40;99.90;;;;;;5108229;28;20027;-57
2023/05/26 04:07:46;;;;;;;26.10;5.95;;;10.30;99.90;;;;;;5107488;28;20030;-57
2023/05/26 04:10:12;;;;;;;30.88;5.43;;;10.30;99.90;;;;;;5109892;28;20027;-59
2023/05/26 04:12:38;;;;;;;44.70;7.45;;;10.30;99.90;;;;;;5105337;28;21021;-58
2023/05/26 04:15:04;;;;;;;36.95;6.00;;;10.30;99.90;;;;;;5101754;28;20020;-59
2023/05/26 04:17:30;;;;;;;34.97;4.90;;;10.40;99.90;;;;;;5101320;28;20024;-58
2023/05/26 04:19:56;;;;;;;35.33;6.78;;;10.40;99.90;;;;;;5101372;28;20024;-58
2023/05/26 04:22:21;;;;;;;21.88;5.40;;;10.30;99.90;;;;;;5102399;28;20100;-60
2023/05/26 04:24:47;;;;;;;44.75;5.07;;;10.30;99.90;;;;;;5101475;28;20477;-61
2023/05/26 04:27:12;;;;;;;34.55;5.90;;;10.30;99.90;;;;;;5105441;28;20028;-61
2023/05/26 04:29:38;;;;;;;36.63;7.22;;;10.30;99.90;;;;;;5104604;28;20028;-60
2023/05/26 04:32:04;;;;;;;38.45;7.05;;;10.30;99.90;;;;;;5099633;28;20027;-60
2023/05/26 04:34:30;;;;;;;40.90;7.25;;;10.30;99.90;;;;;;5109285;28;20112;-59
2023/05/26 04:36:56;;;;;;;41.10;7.45;;;10.30;99.90;;;;;;5107132;28;20027;-58
2023/05/26 04:39:21;;;;;;;39.45;7.10;;;10.30;99.90;;;;;;5108179;28;20023;-59
2023/05/26 04:41:47;;;;;;;26.45;5.45;;;10.40;99.90;;;;;;5105513;28;20020;-59
2023/05/26 04:44:13;;;;;;;38.10;7.30;;;10.30;99.90;;;;;;5106732;28;20450;-60
2023/05/26 04:46:39;;;;;;;33.38;6.80;;;10.30;99.90;;;;;;5109524;27;20051;-61
2023/05/26 04:49:07;;;;;;;35.85;6.35;;;10.30;99.90;;;;;;5107178;28;20426;-60
2023/05/26 04:51:32;;;;;;;41.80;7.15;;;10.30;99.90;;;;;;5107508;28;20481;-60
2023/05/26 04:53:59;;;;;;;33.15;6.55;;;10.30;99.90;;;;;;5101973;27;20058;-61
2023/05/26 04:56:26;;;;;;;36.42;7.85;;;10.40;99.90;;;;;;5104564;28;20016;-59
2023/05/26 04:58:51;;;;;;;36.55;7.07;;;10.40;99.90;;;;;;5103682;28;20396;-61
2023/05/26 05:01:17;;;;;;;39.15;7.93;;;10.40;99.90;;;;;;5098501;28;20046;-61
2023/05/26 05:03:44;;;;;;;37.30;7.90;;;10.40;99.90;;;;;;5105338;28;20020;-60
2023/05/26 05:06:10;;;;;;;29.70;8.23;;;10.30;99.90;;;;;;5105469;28;20081;-62
2023/05/26 05:08:37;;;;;;;41.03;8.77;;;10.30;99.90;;;;;;5103067;28;20028;-58
2023/05/26 05:11:03;;;;;;;37.80;7.65;;;10.30;99.90;;;;;;5101664;28;20035;-60
2023/05/26 05:13:29;;;;;;;36.35;9.88;;;10.40;99.90;;;;;;5101866;28;20072;-59
2023/05/26 05:15:55;;;;;;;36.35;8.85;;;10.40;99.90;;;;;;5106151;28;20020;-61
2023/05/26 05:18:20;;;;;;;30.02;8.88;;;10.40;99.90;;;;;;5106814;28;20606;-59
2023/05/26 05:20:46;;;;;;;38.10;9.32;;;10.40;99.90;;;;;;5108276;28;20534;-58
2023/05/26 05:23:11;;;;;;;33.10;9.10;;;10.40;99.90;;;;;;5104817;28;20044;-55
2023/05/26 05:25:37;;;;;;;28.05;8.63;;;10.50;99.90;;;;;;5106447;27;20027;-61
2023/05/26 05:28:02;;;;;;;48.53;9.23;;;10.50;99.90;;;;;;5105986;28;20027;-59
2023/05/26 05:30:28;;;;;;;39.13;8.77;;;10.60;99.90;;;;;;5100906;28;20059;-57
2023/05/26 05:32:54;;;;;;;38.90;10.15;;;10.60;99.90;;;;;;5108066;28;20031;-58
2023/05/26 05:35:19;;;;;;;46.55;10.00;;;10.70;99.90;;;;;;5105197;28;20043;-58
2023/05/26 05:37:45;;;;;;;49.13;9.32;;;10.70;99.90;;;;;;5106746;28;20028;-59
2023/05/26 05:40:11;;;;;;;51.20;10.18;;;10.70;99.90;;;;;;5107935;28;20095;-58
2023/05/26 05:42:36;;;;;;;44.75;11.23;;;10.70;99.90;;;;;;5107054;28;20043;-57
2023/05/26 05:45:04;;;;;;;45.72;10.57;;;10.80;99.90;;;;;;5109710;28;20077;-57
2023/05/26 05:47:30;;;;;;;48.25;10.93;;;10.80;99.90;;;;;;5109163;28;20051;-58
2023/05/26 05:49:55;;;;;;;43.60;12.15;;;10.90;99.90;;;;;;5105577;28;20070;-61
2023/05/26 05:52:21;;;;;;;44.40;11.27;;;10.80;99.90;;;;;;5106466;28;20420;-57
2023/05/26 05:54:47;;;;;;;46.65;11.10;;;10.80;99.90;;;;;;5105018;28;20019;-58
2023/05/26 05:57:12;;;;;;;37.45;9.95;;;10.80;99.90;;;;;;5106839;28;20489;-60
2023/05/26 05:59:38;;;;;;;49.35;10.82;;;10.90;99.90;;;;;;5106892;28;20099;-57
2023/05/26 06:02:03;;;;;;;48.33;11.70;;;10.90;99.90;;;;;;5101933;28;20025;-55
2023/05/26 06:04:29;;;;;;;49.53;11.32;;;11.00;99.90;;;;;;5110175;28;20542;-57
2023/05/26 06:06:55;;;;;;;45.00;10.48;;;11.00;99.90;;;;;;5109200;28;20110;-59
2023/05/26 06:09:21;;;;;;;43.08;10.88;;;11.00;99.90;;;;;;5105814;28;20485;-58
2023/05/26 06:11:47;;;;;;;54.17;11.75;;;11.10;99.90;;;;;;5107479;28;20088;-57
2023/05/26 06:14:12;;;;;;;48.60;11.40;;;11.20;99.90;;;;;;5109062;28;20019;-58
2023/05/26 06:16:38;;;;;;;41.55;11.95;;;11.20;99.90;;;;;;5108096;28;20057;-58
2023/05/26 06:19:04;;;;;;;38.85;11.15;;;11.30;99.90;;;;;;5108433;28;20027;-58
2023/05/26 06:21:29;;;;;;;41.85;11.60;;;11.30;99.90;;;;;;5109566;28;20027;-58
2023/05/26 06:23:55;;;;;;;49.65;12.93;;;11.40;99.90;;;;;;5107643;28;20027;-52
2023/05/26 06:26:21;;;;;;;44.33;11.73;;;11.50;99.90;;;;;;5108266;28;20024;-57
2023/05/26 06:28:46;;;;;;;47.03;12.55;;;11.50;99.90;;;;;;5107380;28;20027;-60
2023/05/26 06:31:12;;;;;;;38.58;10.85;;;11.50;99.90;;;;;;5106713;28;20451;-57
2023/05/26 06:33:37;;;;;;;45.50;11.45;;;11.50;99.90;;;;;;5109931;28;20031;-54
2023/05/26 06:36:03;;;;;;;47.40;12.00;;;11.60;99.90;;;;;;5109566;28;20019;-55
2023/05/26 06:38:28;;;;;;;41.10;11.77;;;11.60;99.90;;;;;;5107875;28;20031;-61
2023/05/26 06:40:54;;;;;;;45.45;12.05;;;;;;;;;;5109553;28;20076;-56
2023/05/26 06:43:20;;;;;;;42.30;10.75;;;11.80;99.90;;;;;;5108819;28;20031;-59
2023/05/26 06:45:46;;;;;;;37.72;11.50;;;11.90;99.90;;;;;;5107292;28;20027;-58
2023/05/26 06:48:11;;;;;;;46.97;12.65;;;12.00;99.90;;;;;;5109460;28;20504;-59
2023/05/26 06:50:37;;;;;;;48.95;13.27;;;12.00;99.90;;;;;;5109853;28;20463;-60
2023/05/26 06:53:03;;;;;;;40.90;12.40;;;12.00;99.90;;;;;;5108703;28;20028;-58
2023/05/26 06:55:28;;;;;;;42.00;12.88;;;12.10;99.90;;;;;;5107584;28;20031;-60
2023/05/26 06:57:54;;;;;;;47.13;11.98;;;12.10;99.90;;;;;;5108589;28;20035;-59
2023/05/26 07:00:21;;;;;;;57.55;12.35;;;12.20;99.90;;;;;;5102307;28;20450;-61
2023/05/26 07:02:46;;;;;;;44.70;12.32;;;12.30;99.90;;;;;;5108502;28;20109;-61
2023/05/26 07:05:12;;;;;;;39.15;11.95;;;12.30;99.90;;;;;;5107654;28;20111;-61
2023/05/26 07:07:38;;;;;;;50.55;12.13;;;12.40;99.90;;;;;;5104313;28;20498;-59
2023/05/26 07:10:03;;;;;;;43.53;11.57;;;12.30;99.90;;;;;;5104361;28;20072;-59
2023/05/26 07:12:29;;;;;;;52.92;12.73;;;12.30;99.90;;;;;;5116447;27;20030;-57
2023/05/26 07:14:55;;;;;;;45.85;13.00;;;12.30;99.90;;;;;;5112880;28;20011;-61
2023/05/26 07:17:20;;;;;;;48.97;13.30;;;12.50;99.90;;;;;;5113360;28;20020;-61
2023/05/26 07:19:46;;;;;;;53.85;13.23;;;12.50;99.90;;;;;;5111766;28;20071;-57
2023/05/26 07:22:11;;;;;;;45.58;13.63;;;12.50;99.90;;;;;;5111877;28;20492;-59
2023/05/26 07:24:37;;;;;;;44.00;11.38;;;12.60;99.90;;;;;;5113562;28;20405;-61
2023/05/26 07:27:03;;;;;;;50.53;13.15;;;12.50;99.90;;;;;;5109674;28;20436;-61
2023/05/26 07:29:28;;;;;;;39.28;12.90;;;12.60;99.90;;;;;;5109152;28;20028;-61
2023/05/26 07:31:54;;;;;;;59.13;12.68;;;12.70;99.90;;;;;;5109870;28;20027;-60
2023/05/26 07:34:20;;;;;;;43.80;11.50;;;12.70;99.90;;;;;;5111413;28;20024;-61
2023/05/26 07:36:45;;;;;;;44.42;12.48;;;12.80;99.90;;;;;;5112406;28;20033;-60
2023/05/26 07:39:11;;;;;;;50.40;12.95;;;12.80;99.90;;;;;;5111146;28;20427;-61
2023/05/26 07:41:37;;;;;;;50.22;13.55;;;12.80;99.90;;;;;;5111482;28;20031;-62
2023/05/26 07:44:02;;;;;;;44.28;12.93;;;13.00;99.90;;;;;;5110793;28;20023;-60
2023/05/26 07:46:28;;;;;;;40.10;12.30;;;13.00;99.90;;;;;;5107926;28;20107;-61
2023/05/26 07:48:53;;;;;;;52.38;13.77;;;13.10;99.90;;;;;;5110185;28;20039;-59
2023/05/26 07:51:19;;;;;;;46.03;12.48;;;13.10;99.90;;;;;;5111020;28;20027;-59
2023/05/26 07:53:45;;;;;;;42.00;13.38;;;13.20;99.90;;;;;;5111571;28;20039;-61
2023/05/26 07:56:11;;;;;;;44.85;11.80;;;13.10;99.90;;;;;;5110962;28;20024;-60
2023/05/26 07:58:38;;;;;;;53.33;12.43;;;13.10;99.90;;;;;;5111614;28;20397;-59
2023/05/26 08:01:07;;;;;;;45.67;13.02;;;13.30;99.90;;;;;;5110443;28;20043;-58
2023/05/26 08:03:33;;;;;;;46.83;11.57;;;13.40;99.90;;;;;;5108407;28;20396;-58
2023/05/26 08:05:59;;;;;;;50.33;11.82;;;13.40;99.90;;;;;;5111305;28;20019;-60
2023/05/26 08:08:25;;;;;;;46.60;12.07;;;13.50;99.90;;;;;;5110413;28;20413;-62
2023/05/26 08:10:50;;;;;;;27.98;10.75;;;13.50;99.90;;;;;;5110083;28;20038;-62
2023/05/26 08:13:16;;;;;;;36.10;11.10;;;13.60;99.90;;;;;;5112427;28;20023;-60
2023/05/26 08:15:42;;;;;;;39.85;10.50;;;13.70;99.90;;;;;;5109452;28;20035;-62
2023/05/26 08:18:07;;;;;;;38.28;11.65;;;13.80;99.90;;;;;;5109264;28;20034;-62
2023/05/26 08:20:33;;;;;;;47.65;11.75;;;13.90;99.90;;;;;;5109930;28;20024;-61
2023/05/26 08:22:58;;;;;;;45.58;9.68;;;14.10;99.90;;;;;;5109678;28;20054;-61
2023/05/26 08:25:24;;;;;;;44.83;10.38;;;14.10;99.90;;;;;;5111222;28;20023;-61
2023/05/26 08:27:50;;;;;;;52.28;10.77;;;14.10;99.90;;;;;;5108509;28;20406;-60
2023/05/26 08:30:15;;;;;;;47.22;11.65;;;14.10;99.90;;;;;;5107429;28;20031;-59
2023/05/26 08:32:41;;;;;;;36.92;10.45;;;14.10;99.90;;;;;;5108217;28;20043;-60
2023/05/26 08:35:07;;;;;;;47.28;11.20;;;14.10;99.90;;;;;;5106477;28;20518;-58
2023/05/26 08:37:32;;;;;;;42.55;10.40;;;14.30;99.90;;;;;;5108873;28;20548;-60
2023/05/26 08:39:58;;;;;;;40.13;10.75;;;14.30;99.90;;;;;;5109877;27;20051;-58
2023/05/26 08:42:31;;;;;;;40.83;12.18;;;14.30;99.90;;;;;;5109406;28;20038;-62
2023/05/26 08:44:57;;;;;;;47.13;12.55;;;14.40;99.90;;;;;;5107267;28;20114;-59
2023/05/26 08:47:23;;;;;;;43.50;11.10;;;14.50;99.90;;;;;;5106554;28;20516;-58
2023/05/26 08:49:54;;;;;;;51.22;11.00;;;14.50;99.90;;;;;;5110092;27;20027;-57
2023/05/26 08:52:22;;;;;;;51.92;12.00;;;14.50;99.90;;;;;;5108361;28;20027;-61
2023/05/26 08:54:49;;;;;;;43.70;12.25;;;14.60;99.90;;;;;;5106378;28;20311;-59
2023/05/26 08:57:17;;;;;;;56.28;12.07;;;14.70;99.90;;;;;;5111823;28;20031;-60
2023/05/26 08:59:45;;;;;;;43.78;10.63;;;14.70;99.90;;;;;;5110081;28;20035;-60
2023/05/26 09:02:11;;;;;;;50.70;12.45;;;14.80;99.90;;;;;;5105144;28;20038;-62
2023/05/26 09:04:37;;;;;;;41.90;9.90;;;15.00;99.90;;;;;;5111411;28;20041;-62
2023/05/26 09:07:06;;;;;;;43.30;11.43;;;15.10;99.90;;;;;;5106970;28;20032;-60
2023/05/26 09:09:32;;;;;;;50.45;11.57;;;15.10;99.90;;;;;;5104721;28;20035;-59
2023/05/26 09:11:57;;;;;;;38.72;11.10;;;15.10;99.90;;;;;;5108457;28;20028;-62
2023/05/26 09:14:23;;;;;;;48.72;11.07;;;15.10;99.90;;;;;;5110086;28;20035;-60
2023/05/26 09:16:49;;;;;;;45.40;12.40;;;15.20;99.90;;;;;;5111188;28;20024;-59
2023/05/26 09:19:17;;;;;;;46.10;12.48;;;15.20;99.90;;;;;;5108210;28;20066;-59
2023/05/26 09:21:47;;;;;;;42.78;10.85;;;15.30;99.90;;;;;;5100825;28;20061;-62
2023/05/26 09:24:17;;;;;;;50.22;12.43;;;15.50;99.90;;;;;;5107213;27;20016;-62
2023/05/26 09:26:48;;;;;;;42.33;10.65;;;15.50;99.90;;;;;;5108008;28;20024;-61
2023/05/26 09:29:14;;;;;;;40.60;10.95;;;15.50;99.90;;;;;;5107481;28;20157;-59
2023/05/26 09:31:42;;;;;;;30.92;11.07;;;15.40;99.90;;;;;;5106213;28;20031;-60
2023/05/26 09:34:08;;;;;;;52.80;11.25;;;15.50;99.90;;;;;;5107030;28;20028;-61
2023/05/26 09:36:36;;;;;;;46.05;10.93;;;15.70;99.90;;;;;;5109681;28;20054;-61
2023/05/26 09:39:07;;;;;;;41.00;11.73;;;15.80;99.90;;;;;;5103906;28;20027;-59
2023/05/26 09:41:39;;;;;;;37.90;10.55;;;15.70;99.90;;;;;;5109146;28;20027;-58
2023/05/26 09:44:11;;;;;;;33.13;9.50;;;16.00;99.90;;;;;;5100615;28;20020;-58
2023/05/26 09:46:38;;;;;;;42.95;10.75;;;16.20;99.90;;;;;;5107062;28;20020;-57
2023/05/26 09:49:09;;;;;;;37.53;10.57;;;16.50;99.90;;;;;;5107064;28;20548;-59
2023/05/26 09:51:35;;;;;;;38.65;10.50;;;16.60;99.90;;;;;;5102561;28;20042;-61
2023/05/26 09:54:01;;;;;;;35.88;9.95;;;16.60;99.90;;;;;;5107870;28;20030;-60
2023/05/26 09:56:32;;;;;;;34.78;9.23;;;16.70;99.90;;;;;;5106636;28;20031;-59
2023/05/26 09:59:01;;;;;;;36.78;10.70;;;16.90;99.90;;;;;;5104494;28;20522;-60
2023/05/26 10:01:29;;;;;;;32.53;8.95;;;17.00;99.90;;;;;;5101399;28;20331;-60
2023/05/26 10:03:55;;;;;;;34.92;9.35;;;17.10;99.90;;;;;;5106215;28;20416;-60
2023/05/26 10:06:21;;;;;;;32.47;9.05;;;17.10;99.90;;;;;;5102532;28;20031;-61
2023/05/26 10:08:52;;;;;;;31.98;9.05;;;17.30;99.90;;;;;;5105291;28;20055;-60
2023/05/26 10:11:20;;;;;;;45.55;9.93;;;17.30;99.90;;;;;;5104101;27;20042;-60
2023/05/26 10:13:46;;;;;;;31.52;8.65;;;17.40;99.90;;;;;;5103722;28;20059;-61
2023/05/26 10:16:12;;;;;;;29.17;10.43;;;17.40;99.90;;;;;;5103895;28;20020;-60
2023/05/26 10:18:38;;;;;;;41.38;10.27;;;17.20;99.90;;;;;;5104275;28;20042;-61
2023/05/26 10:21:08;;;;;;;31.80;8.95;;;17.40;99.90;;;;;;5104069;28;20030;-61
2023/05/26 10:23:42;;;;;;;38.35;10.20;;;17.70;99.90;;;;;;5100951;28;20028;-62
2023/05/26 10:26:45;;;;;;;36.38;9.90;;;17.80;99.90;;;;;;5105051;28;20169;-61
2023/05/26 10:29:14;;;;;;;34.85;8.93;;;17.80;99.90;;;;;;5068205;28;20041;-59
2023/05/26 10:31:40;;;;;;;27.63;8.50;;;17.90;99.90;;;;;;5104974;28;20027;-60
2023/05/26 10:34:43;;;;;;;34.47;9.18;;;18.00;99.90;;;;;;5104882;28;20513;-62
2023/05/26 10:37:16;;;;;;;31.92;8.40;;;18.40;99.90;;;;;;5106720;28;20011;-60
2023/05/26 10:39:42;;;;;;;37.08;9.13;;;18.60;99.90;;;;;;5105029;28;20027;-60
2023/05/26 10:42:18;;;;;;;27.95;8.57;;;18.50;99.90;;;;;;5107269;28;20051;-62
2023/05/26 10:44:47;;;;;;;25.02;8.52;;;18.20;99.90;;;;;;5103541;28;20497;-61
2023/05/26 10:47:14;;;;;;;33.67;9.07;;;18.40;99.90;;;;;;5110318;28;20417;-61
2023/05/26 10:49:40;;;;;;;40.45;8.85;;;18.60;99.90;;;;;;5112400;28;20054;-61
2023/05/26 10:52:13;;;;;;;39.38;8.55;;;18.60;99.90;;;;;;5113389;28;20058;-61
2023/05/26 10:54:40;;;;;;;41.00;8.85;;;18.50;99.90;;;;;;5113914;28;20456;-60
2023/05/26 10:57:25;;;;;;;47.25;9.13;;;18.70;99.90;;;;;;5113280;28;20102;-62
2023/05/26 10:59:53;;;;;;;34.45;9.43;;;18.70;99.90;;;;;;5111418;28;20080;-60
2023/05/26 11:02:20;;;;;;;35.03;8.10;;;18.70;99.90;;;;;;5112715;28;20153;-60
2023/05/26 11:04:47;;;;;;;33.95;8.68;;;18.80;99.90;;;;;;5112509;28;20405;-62
2023/05/26 11:07:27;;;;;;;36.47;9.95;;;19.00;99.90;;;;;;5112285;28;20024;-61
2023/05/26 11:10:02;;;;;;;41.15;8.75;;;18.90;99.90;;;;;;5113099;28;20020;-62
2023/05/26 11:12:35;;;;;;;32.33;8.70;;;18.90;99.90;;;;;;5114331;28;20059;-63
2023/05/26 11:15:26;;;;;;;34.92;7.68;;;19.00;99.90;;;;;;5109296;28;20028;-63
2023/05/26 11:18:08;;;;;;;32.83;8.02;;;19.40;99.90;;;;;;5109371;28;20106;-62
2023/05/26 11:20:34;;;;;;;35.80;7.85;;;19.90;99.90;;;;;;5111864;28;20095;-62
2023/05/26 11:23:00;;;;;;;31.30;7.63;;;19.80;99.90;;;;;;5113139;28;20024;-61
2023/05/26 11:25:26;;;;;;;36.75;8.50;;;19.50;99.90;;;;;;5111890;28;20084;-60
2023/05/26 11:27:52;;;;;;;28.73;8.10;;;19.40;99.90;;;;;;5112244;28;20038;-61
2023/05/26 11:30:21;;;;;;;31.80;8.27;;;19.30;99.90;;;;;;5111709;28;20405;-62
2023/05/26 11:32:51;;;;;;;26.10;7.18;;;18.90;99.90;;;;;;5111953;28;20032;-61
2023/05/26 11:35:27;;;;;;;28.58;7.07;;;19.00;99.90;;;;;;5113072;28;20115;-61
2023/05/26 11:37:53;;;;;;;31.77;6.60;;;19.50;99.90;;;;;;5111469;28;20051;-62
2023/05/26 11:40:19;;;;;;;30.55;7.03;;;19.80;99.90;;;;;;5111121;28;20039;-58
2023/05/26 11:42:46;;;;;;;32.00;7.10;;;19.80;99.90;;;;;;5113088;28;20055;-61
2023/05/26 11:45:12;;;;;;;22.58;7.05;;;19.90;99.90;;;;;;5108767;28;20052;-61
2023/05/26 11:47:37;;;;;;;32.72;7.82;;;20.10;99.90;;;;;;5110067;28;20120;-61
2023/05/26 11:50:08;;;;;;;27.42;6.68;;;20.40;99.90;;;;;;5110130;28;20033;-61
2023/05/26 11:52:33;;;;;;;30.80;7.28;;;20.20;99.90;;;;;;5107350;28;20588;-61
2023/05/26 11:54:59;;;;;;;33.03;7.32;;;20.30;99.90;;;;;;5108721;28;20070;-61
2023/05/26 11:57:30;;;;;;;28.05;6.45;;;20.10;99.90;;;;;;5107788;28;20055;-61
2023/05/26 11:59:56;;;;;;;22.63;6.90;;;20.30;99.90;;;;;;5105427;28;20024;-62
2023/05/26 12:02:22;;;;;;;25.38;6.90;;;20.70;99.90;;;;;;5108609;28;20444;-61
2023/05/26 12:04:48;;;;;;;28.35;7.90;;;21.20;99.90;;;;;;5104707;28;20100;-63
2023/05/26 12:07:27;;;;;;;26.10;6.70;;;21.20;99.90;;;;;;5105433;28;20106;-61
2023/05/26 12:10:03;;;;;;;26.08;7.60;;;20.80;99.90;;;;;;5102167;28;20103;-61
2023/05/26 12:12:32;;;;;;;33.58;7.45;;;20.60;99.90;;;;;;5103557;27;20443;-61
2023/05/26 12:15:05;;;;;;;27.38;7.50;;;20.80;99.90;;;;;;5106982;28;20428;-59
2023/05/26 12:17:31;;;;;;;23.63;6.95;;;21.10;99.90;;;;;;5104133;28;20024;-61
2023/05/26 12:19:57;;;;;;;21.13;6.97;;;21.20;99.90;;;;;;5101630;28;20558;-62
2023/05/26 12:22:27;;;;;;;22.35;6.25;;;21.20;99.90;;;;;;5109739;28;20024;-58
2023/05/26 12:24:58;;;;;;;28.00;6.72;;;21.10;99.90;;;;;;5106273;27;20136;-58
2023/05/26 12:27:35;;;;;;;28.45;8.07;;;21.30;99.90;;;;;;5106483;28;20019;-59
2023/05/26 12:30:16;;;;;;;25.52;6.40;;;21.30;99.90;;;;;;5100920;28;20074;-59
2023/05/26 12:32:42;;;;;;;28.50;6.95;;;21.40;99.90;;;;;;5103316;28;20024;-60
2023/05/26 12:35:07;;;;;;;21.33;5.93;;;21.80;99.90;;;;;;5109351;28;20388;-60